sensor_id;sensor_type;location;lat;lon;timestamp;P1;durP1;ratioP1;P2;durP2;ratioP2
46931;SDS011;32670;51.464;11.964;2023-06-04T00:02:11;4.80;;;3.90;;
46931;SDS011;32670;51.464;11.964;2023-06-04T00:04:37;5.30;;;4.13;;
46931;SDS011;32670;51.464;11.964;2023-06-04T00:07:02;5.53;;;4.00;;
46931;SDS011;32670;51.464;11.964;2023-06-04T00:09:28;5.60;;;4.33;;
46931;SDS011;32670;51.464;11.964;2023-06-04T00:11:53;6.20;;;4.20;;
46931;SDS011;32670;51.464;11.964;2023-06-04T00:14:19;4.57;;;4.17;;
46931;SDS011;32670;51.464;11.964;2023-06-04T00:16:44;6.73;;;4.20;;
46931;SDS011;32670;51.464;11.964;2023-06-04T00:19:10;5.17;;;4.00;;
46931;SDS011;32670;51.464;11.964;2023-06-04T00:21:35;4.53;;;4.10;;
46931;SDS011;32670;51.464;11.964;2023-06-04T00:24:01;4.30;;;4.00;;
46931;SDS011;32670;51.464;11.964;2023-06-04T00:26:27;5.50;;;3.93;;
46931;SDS011;32670;51.464;11.964;2023-06-04T00:28:55;5.17;;;4.13;;
46931;SDS011;32670;51.464;11.964;2023-06-04T00:31:21;4.07;;;3.67;;
46931;SDS011;32670;51.464;11.964;2023-06-04T00:33:47;7.37;;;4.47;;
46931;SDS011;32670;51.464;11.964;2023-06-04T00:36:13;4.20;;;3.80;;
46931;SDS011;32670;51.464;11.964;2023-06-04T00:38:38;5.33;;;3.80;;
46931;SDS011;32670;51.464;11.964;2023-06-04T00:41:04;4.17;;;3.77;;
46931;SDS011;32670;51.464;11.964;2023-06-04T00:43:29;7.63;;;4.30;;
46931;SDS011;32670;51.464;11.964;2023-06-04T00:45:56;4.83;;;3.87;;
46931;SDS011;32670;51.464;11.964;2023-06-04T00:48:22;6.60;;;4.17;;
46931;SDS011;32670;51.464;11.964;2023-06-04T00:50:48;5.23;;;3.80;;
46931;SDS011;32670;51.464;11.964;2023-06-04T00:53:14;4.57;;;3.87;;
46931;SDS011;32670;51.464;11.964;2023-06-04T00:55:40;3.90;;;3.57;;
46931;SDS011;32670;51.464;11.964;2023-06-04T00:58:06;5.20;;;3.97;;
46931;SDS011;32670;51.464;11.964;2023-06-04T01:00:33;6.60;;;4.07;;
46931;SDS011;32670;51.464;11.964;2023-06-04T01:02:59;5.30;;;3.43;;
46931;SDS011;32670;51.464;11.964;2023-06-04T01:05:36;4.17;;;3.67;;
46931;SDS011;32670;51.464;11.964;2023-06-04T01:08:07;4.17;;;3.80;;
46931;SDS011;32670;51.464;11.964;2023-06-04T01:10:34;4.00;;;3.70;;
46931;SDS011;32670;51.464;11.964;2023-06-04T01:12:59;4.93;;;3.80;;
46931;SDS011;32670;51.464;11.964;2023-06-04T01:15:25;4.33;;;3.93;;
46931;SDS011;32670;51.464;11.964;2023-06-04T01:17:51;4.53;;;3.83;;
46931;SDS011;32670;51.464;11.964;2023-06-04T01:23:14;4.80;;;4.00;;
46931;SDS011;32670;51.464;11.964;2023-06-04T01:25:46;3.97;;;3.67;;
46931;SDS011;32670;51.464;11.964;2023-06-04T01:28:14;3.67;;;3.10;;
46931;SDS011;32670;51.464;11.964;2023-06-04T01:30:42;3.70;;;3.40;;
46931;SDS011;32670;51.464;11.964;2023-06-04T01:33:11;3.93;;;3.63;;
46931;SDS011;32670;51.464;11.964;2023-06-04T01:35:40;4.40;;;3.47;;
46931;SDS011;32670;51.464;11.964;2023-06-04T01:38:06;4.23;;;3.83;;
46931;SDS011;32670;51.464;11.964;2023-06-04T01:40:32;3.97;;;3.57;;
46931;SDS011;32670;51.464;11.964;2023-06-04T01:42:58;3.70;;;3.40;;
46931;SDS011;32670;51.464;11.964;2023-06-04T01:45:25;4.17;;;3.60;;
46931;SDS011;32670;51.464;11.964;2023-06-04T01:47:51;3.83;;;3.50;;
46931;SDS011;32670;51.464;11.964;2023-06-04T01:50:17;4.13;;;3.40;;
46931;SDS011;32670;51.464;11.964;2023-06-04T01:52:43;3.50;;;3.20;;
46931;SDS011;32670;51.464;11.964;2023-06-04T01:55:10;6.80;;;4.10;;
46931;SDS011;32670;51.464;11.964;2023-06-04T01:57:38;5.10;;;3.53;;
46931;SDS011;32670;51.464;11.964;2023-06-04T02:00:04;3.90;;;3.60;;
46931;SDS011;32670;51.464;11.964;2023-06-04T02:02:33;3.60;;;3.30;;
46931;SDS011;32670;51.464;11.964;2023-06-04T02:04:58;4.10;;;3.70;;
46931;SDS011;32670;51.464;11.964;2023-06-04T02:07:24;3.73;;;3.43;;
46931;SDS011;32670;51.464;11.964;2023-06-04T02:09:50;3.70;;;3.30;;
46931;SDS011;32670;51.464;11.964;2023-06-04T02:12:16;4.87;;;3.73;;
46931;SDS011;32670;51.464;11.964;2023-06-04T02:14:42;7.73;;;4.20;;
46931;SDS011;32670;51.464;11.964;2023-06-04T02:17:08;4.37;;;3.73;;
46931;SDS011;32670;51.464;11.964;2023-06-04T02:19:40;4.60;;;3.70;;
46931;SDS011;32670;51.464;11.964;2023-06-04T02:22:13;3.73;;;3.40;;
46931;SDS011;32670;51.464;11.964;2023-06-04T02:24:39;5.60;;;3.87;;
46931;SDS011;32670;51.464;11.964;2023-06-04T02:27:07;4.03;;;3.70;;
46931;SDS011;32670;51.464;11.964;2023-06-04T02:29:33;4.23;;;3.70;;
46931;SDS011;32670;51.464;11.964;2023-06-04T02:31:58;4.53;;;4.03;;
46931;SDS011;32670;51.464;11.964;2023-06-04T02:34:24;4.20;;;3.90;;
46931;SDS011;32670;51.464;11.964;2023-06-04T02:36:50;4.30;;;3.90;;
46931;SDS011;32670;51.464;11.964;2023-06-04T02:39:16;4.43;;;4.07;;
46931;SDS011;32670;51.464;11.964;2023-06-04T02:41:43;7.30;;;4.40;;
46931;SDS011;32670;51.464;11.964;2023-06-04T02:44:08;4.17;;;3.70;;
46931;SDS011;32670;51.464;11.964;2023-06-04T02:46:34;4.23;;;3.83;;
46931;SDS011;32670;51.464;11.964;2023-06-04T02:48:59;4.57;;;4.17;;
46931;SDS011;32670;51.464;11.964;2023-06-04T02:51:25;4.40;;;4.00;;
46931;SDS011;32670;51.464;11.964;2023-06-04T02:53:50;4.93;;;4.27;;
46931;SDS011;32670;51.464;11.964;2023-06-04T02:56:16;4.70;;;4.13;;
46931;SDS011;32670;51.464;11.964;2023-06-04T02:58:51;6.50;;;4.13;;
46931;SDS011;32670;51.464;11.964;2023-06-04T03:01:21;4.80;;;4.40;;
46931;SDS011;32670;51.464;11.964;2023-06-04T03:03:48;4.90;;;4.20;;
46931;SDS011;32670;51.464;11.964;2023-06-04T03:06:14;4.50;;;4.10;;
46931;SDS011;32670;51.464;11.964;2023-06-04T03:08:41;6.57;;;4.80;;
46931;SDS011;32670;51.464;11.964;2023-06-04T03:11:07;4.40;;;4.00;;
46931;SDS011;32670;51.464;11.964;2023-06-04T03:13:33;4.80;;;4.17;;
46931;SDS011;32670;51.464;11.964;2023-06-04T03:15:59;6.20;;;4.63;;
46931;SDS011;32670;51.464;11.964;2023-06-04T03:18:27;6.37;;;4.40;;
46931;SDS011;32670;51.464;11.964;2023-06-04T03:20:53;6.50;;;4.27;;
46931;SDS011;32670;51.464;11.964;2023-06-04T03:23:19;4.70;;;4.30;;
46931;SDS011;32670;51.464;11.964;2023-06-04T03:25:45;6.87;;;4.10;;
46931;SDS011;32670;51.464;11.964;2023-06-04T03:28:11;4.57;;;4.17;;
46931;SDS011;32670;51.464;11.964;2023-06-04T03:30:36;5.07;;;4.53;;
46931;SDS011;32670;51.464;11.964;2023-06-04T03:33:02;4.67;;;4.30;;
46931;SDS011;32670;51.464;11.964;2023-06-04T03:35:28;6.97;;;4.57;;
46931;SDS011;32670;51.464;11.964;2023-06-04T03:37:53;27.37;;;4.70;;
46931;SDS011;32670;51.464;11.964;2023-06-04T03:40:19;6.20;;;4.87;;
46931;SDS011;32670;51.464;11.964;2023-06-04T03:42:45;4.63;;;4.23;;
46931;SDS011;32670;51.464;11.964;2023-06-04T03:45:10;6.83;;;4.73;;
46931;SDS011;32670;51.464;11.964;2023-06-04T03:47:37;6.50;;;4.60;;
46931;SDS011;32670;51.464;11.964;2023-06-04T03:50:04;6.90;;;4.60;;
46931;SDS011;32670;51.464;11.964;2023-06-04T03:52:30;6.70;;;4.73;;
46931;SDS011;32670;51.464;11.964;2023-06-04T03:54:56;4.93;;;4.43;;
46931;SDS011;32670;51.464;11.964;2023-06-04T03:57:21;8.47;;;4.50;;
46931;SDS011;32670;51.464;11.964;2023-06-04T03:59:47;6.10;;;4.30;;
46931;SDS011;32670;51.464;11.964;2023-06-04T04:02:12;4.90;;;4.50;;
46931;SDS011;32670;51.464;11.964;2023-06-04T04:04:38;5.90;;;4.40;;
46931;SDS011;32670;51.464;11.964;2023-06-04T04:07:03;4.80;;;4.40;;
46931;SDS011;32670;51.464;11.964;2023-06-04T04:09:29;8.27;;;4.50;;
46931;SDS011;32670;51.464;11.964;2023-06-04T04:11:54;5.03;;;4.53;;
46931;SDS011;32670;51.464;11.964;2023-06-04T04:14:20;6.40;;;4.50;;
46931;SDS011;32670;51.464;11.964;2023-06-04T04:16:45;5.27;;;4.30;;
46931;SDS011;32670;51.464;11.964;2023-06-04T04:19:11;8.63;;;4.27;;
46931;SDS011;32670;51.464;11.964;2023-06-04T04:21:37;7.00;;;4.10;;
46931;SDS011;32670;51.464;11.964;2023-06-04T04:24:03;6.90;;;4.80;;
46931;SDS011;32670;51.464;11.964;2023-06-04T04:26:29;4.77;;;4.37;;
46931;SDS011;32670;51.464;11.964;2023-06-04T04:28:54;5.33;;;4.53;;
46931;SDS011;32670;51.464;11.964;2023-06-04T04:31:24;5.77;;;4.40;;
46931;SDS011;32670;51.464;11.964;2023-06-04T04:33:50;7.67;;;4.43;;
46931;SDS011;32670;51.464;11.964;2023-06-04T04:36:16;6.77;;;4.70;;
46931;SDS011;32670;51.464;11.964;2023-06-04T04:38:43;4.47;;;4.03;;
46931;SDS011;32670;51.464;11.964;2023-06-04T04:41:09;4.93;;;4.53;;
46931;SDS011;32670;51.464;11.964;2023-06-04T04:43:36;4.90;;;4.50;;
46931;SDS011;32670;51.464;11.964;2023-06-04T04:46:04;4.80;;;4.40;;
46931;SDS011;32670;51.464;11.964;2023-06-04T04:48:30;5.03;;;4.63;;
46931;SDS011;32670;51.464;11.964;2023-06-04T04:50:55;4.70;;;4.13;;
46931;SDS011;32670;51.464;11.964;2023-06-04T04:53:21;6.07;;;4.67;;
46931;SDS011;32670;51.464;11.964;2023-06-04T04:55:46;5.07;;;4.57;;
46931;SDS011;32670;51.464;11.964;2023-06-04T04:58:12;4.97;;;4.50;;
46931;SDS011;32670;51.464;11.964;2023-06-04T05:00:38;5.37;;;4.57;;
46931;SDS011;32670;51.464;11.964;2023-06-04T05:03:03;4.93;;;4.53;;
46931;SDS011;32670;51.464;11.964;2023-06-04T05:05:29;5.20;;;4.63;;
46931;SDS011;32670;51.464;11.964;2023-06-04T05:07:55;4.80;;;4.40;;
46931;SDS011;32670;51.464;11.964;2023-06-04T05:10:20;4.90;;;4.33;;
46931;SDS011;32670;51.464;11.964;2023-06-04T05:12:52;4.53;;;4.13;;
46931;SDS011;32670;51.464;11.964;2023-06-04T05:15:18;5.40;;;4.70;;
46931;SDS011;32670;51.464;11.964;2023-06-04T05:17:44;4.43;;;3.97;;
46931;SDS011;32670;51.464;11.964;2023-06-04T05:20:11;5.20;;;4.50;;
46931;SDS011;32670;51.464;11.964;2023-06-04T05:22:37;4.77;;;4.37;;
46931;SDS011;32670;51.464;11.964;2023-06-04T05:25:03;6.67;;;4.20;;
46931;SDS011;32670;51.464;11.964;2023-06-04T05:27:30;7.57;;;5.10;;
46931;SDS011;32670;51.464;11.964;2023-06-04T05:29:56;6.73;;;4.33;;
46931;SDS011;32670;51.464;11.964;2023-06-04T05:32:22;7.27;;;4.33;;
46931;SDS011;32670;51.464;11.964;2023-06-04T05:34:48;9.17;;;4.47;;
46931;SDS011;32670;51.464;11.964;2023-06-04T05:37:13;8.23;;;4.70;;
46931;SDS011;32670;51.464;11.964;2023-06-04T05:39:41;7.80;;;4.60;;
46931;SDS011;32670;51.464;11.964;2023-06-04T05:42:07;6.97;;;3.20;;
46931;SDS011;32670;51.464;11.964;2023-06-04T05:44:33;4.07;;;3.07;;
46931;SDS011;32670;51.464;11.964;2023-06-04T05:46:58;3.17;;;2.83;;
46931;SDS011;32670;51.464;11.964;2023-06-04T05:49:23;4.07;;;2.60;;
46931;SDS011;32670;51.464;11.964;2023-06-04T05:51:50;4.67;;;2.53;;
46931;SDS011;32670;51.464;11.964;2023-06-04T05:54:15;3.40;;;2.63;;
46931;SDS011;32670;51.464;11.964;2023-06-04T05:56:41;3.90;;;2.53;;
46931;SDS011;32670;51.464;11.964;2023-06-04T05:59:06;6.03;;;2.40;;
46931;SDS011;32670;51.464;11.964;2023-06-04T06:01:32;2.53;;;1.83;;
46931;SDS011;32670;51.464;11.964;2023-06-04T06:03:57;2.40;;;2.20;;
46931;SDS011;32670;51.464;11.964;2023-06-04T06:06:22;4.00;;;1.70;;
46931;SDS011;32670;51.464;11.964;2023-06-04T06:08:48;3.17;;;2.07;;
46931;SDS011;32670;51.464;11.964;2023-06-04T06:11:15;4.27;;;2.00;;
46931;SDS011;32670;51.464;11.964;2023-06-04T06:13:40;2.20;;;1.80;;
46931;SDS011;32670;51.464;11.964;2023-06-04T06:16:06;3.33;;;1.90;;
46931;SDS011;32670;51.464;11.964;2023-06-04T06:18:31;2.97;;;1.60;;
46931;SDS011;32670;51.464;11.964;2023-06-04T06:20:57;1.70;;;1.50;;
46931;SDS011;32670;51.464;11.964;2023-06-04T06:23:23;2.80;;;1.90;;
46931;SDS011;32670;51.464;11.964;2023-06-04T06:25:49;1.97;;;1.70;;
46931;SDS011;32670;51.464;11.964;2023-06-04T06:28:16;3.43;;;1.67;;
46931;SDS011;32670;51.464;11.964;2023-06-04T06:30:45;3.40;;;1.70;;
46931;SDS011;32670;51.464;11.964;2023-06-04T06:33:10;3.97;;;1.60;;
46931;SDS011;32670;51.464;11.964;2023-06-04T06:35:36;2.70;;;1.67;;
46931;SDS011;32670;51.464;11.964;2023-06-04T06:38:02;2.37;;;1.30;;
46931;SDS011;32670;51.464;11.964;2023-06-04T06:40:27;14.27;;;1.83;;
46931;SDS011;32670;51.464;11.964;2023-06-04T06:42:55;14.03;;;2.13;;
46931;SDS011;32670;51.464;11.964;2023-06-04T06:45:20;18.40;;;2.13;;
46931;SDS011;32670;51.464;11.964;2023-06-04T06:47:46;7.17;;;1.73;;
46931;SDS011;32670;51.464;11.964;2023-06-04T06:50:12;12.93;;;2.00;;
46931;SDS011;32670;51.464;11.964;2023-06-04T06:52:37;6.87;;;1.67;;
46931;SDS011;32670;51.464;11.964;2023-06-04T06:55:04;9.97;;;2.30;;
46931;SDS011;32670;51.464;11.964;2023-06-04T06:57:30;7.87;;;1.80;;
46931;SDS011;32670;51.464;11.964;2023-06-04T06:59:55;7.10;;;1.90;;
46931;SDS011;32670;51.464;11.964;2023-06-04T07:02:21;7.47;;;1.77;;
46931;SDS011;32670;51.464;11.964;2023-06-04T07:04:47;7.13;;;2.00;;
46931;SDS011;32670;51.464;11.964;2023-06-04T07:07:12;4.00;;;1.63;;
46931;SDS011;32670;51.464;11.964;2023-06-04T07:09:38;3.20;;;1.73;;
46931;SDS011;32670;51.464;11.964;2023-06-04T07:12:03;5.57;;;1.73;;
46931;SDS011;32670;51.464;11.964;2023-06-04T07:14:29;2.77;;;1.50;;
46931;SDS011;32670;51.464;11.964;2023-06-04T07:16:54;5.40;;;1.53;;
46931;SDS011;32670;51.464;11.964;2023-06-04T07:19:20;3.73;;;1.50;;
46931;SDS011;32670;51.464;11.964;2023-06-04T07:21:45;3.47;;;1.60;;
46931;SDS011;32670;51.464;11.964;2023-06-04T07:24:11;4.03;;;1.57;;
46931;SDS011;32670;51.464;11.964;2023-06-04T07:26:36;3.10;;;1.57;;
46931;SDS011;32670;51.464;11.964;2023-06-04T07:29:02;4.40;;;1.80;;
46931;SDS011;32670;51.464;11.964;2023-06-04T07:31:27;4.30;;;1.77;;
46931;SDS011;32670;51.464;11.964;2023-06-04T07:33:53;5.47;;;1.83;;
46931;SDS011;32670;51.464;11.964;2023-06-04T07:36:18;4.13;;;1.60;;
46931;SDS011;32670;51.464;11.964;2023-06-04T07:38:45;3.93;;;1.60;;
46931;SDS011;32670;51.464;11.964;2023-06-04T07:41:10;3.60;;;1.47;;
46931;SDS011;32670;51.464;11.964;2023-06-04T07:43:36;5.37;;;1.90;;
46931;SDS011;32670;51.464;11.964;2023-06-04T07:46:02;2.83;;;1.70;;
46931;SDS011;32670;51.464;11.964;2023-06-04T07:48:30;3.77;;;1.70;;
46931;SDS011;32670;51.464;11.964;2023-06-04T07:50:57;3.47;;;1.80;;
46931;SDS011;32670;51.464;11.964;2023-06-04T07:53:23;4.43;;;1.50;;
46931;SDS011;32670;51.464;11.964;2023-06-04T07:55:48;3.50;;;1.37;;
46931;SDS011;32670;51.464;11.964;2023-06-04T07:58:14;2.03;;;1.40;;
46931;SDS011;32670;51.464;11.964;2023-06-04T08:00:40;1.40;;;1.30;;
46931;SDS011;32670;51.464;11.964;2023-06-04T08:03:05;2.27;;;1.47;;
46931;SDS011;32670;51.464;11.964;2023-06-04T08:05:30;2.93;;;1.57;;
46931;SDS011;32670;51.464;11.964;2023-06-04T08:07:56;1.90;;;1.40;;
46931;SDS011;32670;51.464;11.964;2023-06-04T08:10:21;1.73;;;1.20;;
46931;SDS011;32670;51.464;11.964;2023-06-04T08:12:47;3.73;;;1.70;;
46931;SDS011;32670;51.464;11.964;2023-06-04T08:15:12;3.60;;;1.53;;
46931;SDS011;32670;51.464;11.964;2023-06-04T08:17:38;2.83;;;1.50;;
46931;SDS011;32670;51.464;11.964;2023-06-04T08:20:03;2.93;;;1.20;;
46931;SDS011;32670;51.464;11.964;2023-06-04T08:22:33;2.00;;;1.40;;
46931;SDS011;32670;51.464;11.964;2023-06-04T08:24:59;2.27;;;1.60;;
46931;SDS011;32670;51.464;11.964;2023-06-04T08:27:25;2.80;;;1.50;;
46931;SDS011;32670;51.464;11.964;2023-06-04T08:29:50;6.43;;;1.30;;
46931;SDS011;32670;51.464;11.964;2023-06-04T08:32:17;3.03;;;1.60;;
46931;SDS011;32670;51.464;11.964;2023-06-04T08:34:42;1.50;;;1.20;;
46931;SDS011;32670;51.464;11.964;2023-06-04T08:37:08;2.93;;;1.50;;
46931;SDS011;32670;51.464;11.964;2023-06-04T08:39:34;1.93;;;1.37;;
46931;SDS011;32670;51.464;11.964;2023-06-04T08:42:00;2.47;;;1.50;;
46931;SDS011;32670;51.464;11.964;2023-06-04T08:44:29;1.30;;;1.20;;
46931;SDS011;32670;51.464;11.964;2023-06-04T08:46:54;1.50;;;1.40;;
46931;SDS011;32670;51.464;11.964;2023-06-04T08:49:27;3.43;;;1.30;;
46931;SDS011;32670;51.464;11.964;2023-06-04T08:51:59;2.87;;;1.30;;
46931;SDS011;32670;51.464;11.964;2023-06-04T08:54:25;2.23;;;1.50;;
46931;SDS011;32670;51.464;11.964;2023-06-04T08:56:51;3.40;;;1.70;;
46931;SDS011;32670;51.464;11.964;2023-06-04T08:59:17;1.53;;;1.30;;
46931;SDS011;32670;51.464;11.964;2023-06-04T09:01:43;3.90;;;1.53;;
46931;SDS011;32670;51.464;11.964;2023-06-04T09:04:10;2.80;;;1.47;;
46931;SDS011;32670;51.464;11.964;2023-06-04T09:06:36;1.57;;;1.30;;
46931;SDS011;32670;51.464;11.964;2023-06-04T09:09:03;3.37;;;1.70;;
46931;SDS011;32670;51.464;11.964;2023-06-04T09:11:35;1.47;;;1.37;;
46931;SDS011;32670;51.464;11.964;2023-06-04T09:14:06;1.53;;;1.43;;
46931;SDS011;32670;51.464;11.964;2023-06-04T09:16:41;1.33;;;1.20;;
46931;SDS011;32670;51.464;11.964;2023-06-04T09:19:08;1.47;;;1.37;;
46931;SDS011;32670;51.464;11.964;2023-06-04T09:21:33;1.83;;;1.50;;
46931;SDS011;32670;51.464;11.964;2023-06-04T09:23:59;2.53;;;1.50;;
46931;SDS011;32670;51.464;11.964;2023-06-04T09:26:24;1.70;;;1.40;;
46931;SDS011;32670;51.464;11.964;2023-06-04T09:28:50;1.27;;;1.17;;
46931;SDS011;32670;51.464;11.964;2023-06-04T09:31:18;1.47;;;1.10;;
46931;SDS011;32670;51.464;11.964;2023-06-04T09:33:49;1.20;;;1.10;;
46931;SDS011;32670;51.464;11.964;2023-06-04T09:36:16;1.80;;;1.47;;
46931;SDS011;32670;51.464;11.964;2023-06-04T09:38:42;1.40;;;1.30;;
46931;SDS011;32670;51.464;11.964;2023-06-04T09:41:11;1.50;;;1.20;;
46931;SDS011;32670;51.464;11.964;2023-06-04T09:43:37;1.63;;;1.53;;
46931;SDS011;32670;51.464;11.964;2023-06-04T09:46:09;2.10;;;1.30;;
46931;SDS011;32670;51.464;11.964;2023-06-04T09:48:35;2.07;;;1.70;;
46931;SDS011;32670;51.464;11.964;2023-06-04T09:51:13;1.70;;;1.50;;
46931;SDS011;32670;51.464;11.964;2023-06-04T09:53:40;1.70;;;1.40;;
46931;SDS011;32670;51.464;11.964;2023-06-04T09:56:06;1.43;;;1.33;;
46931;SDS011;32670;51.464;11.964;2023-06-04T09:58:33;1.83;;;1.40;;
46931;SDS011;32670;51.464;11.964;2023-06-04T10:01:00;1.60;;;1.50;;
46931;SDS011;32670;51.464;11.964;2023-06-04T10:03:29;1.37;;;1.27;;
46931;SDS011;32670;51.464;11.964;2023-06-04T10:06:04;1.50;;;1.37;;
46931;SDS011;32670;51.464;11.964;2023-06-04T10:08:31;2.63;;;1.43;;
46931;SDS011;32670;51.464;11.964;2023-06-04T10:10:59;1.37;;;1.10;;
46931;SDS011;32670;51.464;11.964;2023-06-04T10:13:27;1.67;;;1.40;;
46931;SDS011;32670;51.464;11.964;2023-06-04T10:15:59;1.80;;;1.50;;
46931;SDS011;32670;51.464;11.964;2023-06-04T10:18:29;1.53;;;1.40;;
46931;SDS011;32670;51.464;11.964;2023-06-04T10:20:56;1.43;;;1.33;;
46931;SDS011;32670;51.464;11.964;2023-06-04T10:23:22;1.53;;;1.30;;
46931;SDS011;32670;51.464;11.964;2023-06-04T10:25:51;1.70;;;1.50;;
46931;SDS011;32670;51.464;11.964;2023-06-04T10:28:19;2.33;;;1.43;;
46931;SDS011;32670;51.464;11.964;2023-06-04T10:30:45;1.80;;;1.43;;
46931;SDS011;32670;51.464;11.964;2023-06-04T10:33:11;1.40;;;1.30;;
46931;SDS011;32670;51.464;11.964;2023-06-04T10:35:38;1.60;;;1.30;;
46931;SDS011;32670;51.464;11.964;2023-06-04T10:38:04;1.40;;;1.30;;
46931;SDS011;32670;51.464;11.964;2023-06-04T10:40:31;1.70;;;1.27;;
46931;SDS011;32670;51.464;11.964;2023-06-04T10:43:04;1.80;;;1.30;;
46931;SDS011;32670;51.464;11.964;2023-06-04T10:45:30;2.43;;;1.50;;
46931;SDS011;32670;51.464;11.964;2023-06-04T10:48:02;1.47;;;1.37;;
46931;SDS011;32670;51.464;11.964;2023-06-04T10:50:32;1.53;;;1.43;;
46931;SDS011;32670;51.464;11.964;2023-06-04T10:52:58;1.70;;;1.60;;
46931;SDS011;32670;51.464;11.964;2023-06-04T10:55:28;1.50;;;1.40;;
46931;SDS011;32670;51.464;11.964;2023-06-04T10:57:54;1.57;;;1.47;;
46931;SDS011;32670;51.464;11.964;2023-06-04T11:00:21;1.67;;;1.57;;
46931;SDS011;32670;51.464;11.964;2023-06-04T11:02:51;1.40;;;1.30;;
46931;SDS011;32670;51.464;11.964;2023-06-04T11:05:18;3.13;;;1.53;;
46931;SDS011;32670;51.464;11.964;2023-06-04T11:07:45;1.70;;;1.60;;
46931;SDS011;32670;51.464;11.964;2023-06-04T11:10:12;2.47;;;1.37;;
46931;SDS011;32670;51.464;11.964;2023-06-04T11:12:46;1.43;;;1.30;;
46931;SDS011;32670;51.464;11.964;2023-06-04T11:15:15;1.63;;;1.43;;
46931;SDS011;32670;51.464;11.964;2023-06-04T11:17:51;2.10;;;1.47;;
46931;SDS011;32670;51.464;11.964;2023-06-04T11:20:23;1.53;;;1.40;;
46931;SDS011;32670;51.464;11.964;2023-06-04T11:22:52;2.20;;;1.60;;
46931;SDS011;32670;51.464;11.964;2023-06-04T11:25:23;1.67;;;1.30;;
46931;SDS011;32670;51.464;11.964;2023-06-04T11:27:51;1.50;;;1.40;;
46931;SDS011;32670;51.464;11.964;2023-06-04T11:30:17;1.40;;;1.30;;
46931;SDS011;32670;51.464;11.964;2023-06-04T11:32:43;1.87;;;1.50;;
46931;SDS011;32670;51.464;11.964;2023-06-04T11:35:09;2.20;;;1.40;;
46931;SDS011;32670;51.464;11.964;2023-06-04T11:37:36;2.13;;;1.47;;
46931;SDS011;32670;51.464;11.964;2023-06-04T11:40:02;1.50;;;1.40;;
46931;SDS011;32670;51.464;11.964;2023-06-04T11:42:31;1.73;;;1.40;;
46931;SDS011;32670;51.464;11.964;2023-06-04T11:44:57;1.60;;;1.50;;
46931;SDS011;32670;51.464;11.964;2023-06-04T11:47:23;2.23;;;1.60;;
46931;SDS011;32670;51.464;11.964;2023-06-04T11:49:53;1.70;;;1.60;;
46931;SDS011;32670;51.464;11.964;2023-06-04T11:52:20;1.53;;;1.43;;
46931;SDS011;32670;51.464;11.964;2023-06-04T11:54:46;3.03;;;1.60;;
46931;SDS011;32670;51.464;11.964;2023-06-04T11:57:12;1.57;;;1.47;;
46931;SDS011;32670;51.464;11.964;2023-06-04T11:59:38;1.80;;;1.70;;
46931;SDS011;32670;51.464;11.964;2023-06-04T12:02:04;1.57;;;1.47;;
46931;SDS011;32670;51.464;11.964;2023-06-04T12:04:31;1.73;;;1.63;;
46931;SDS011;32670;51.464;11.964;2023-06-04T12:06:57;1.60;;;1.50;;
46931;SDS011;32670;51.464;11.964;2023-06-04T12:09:30;1.70;;;1.60;;
46931;SDS011;32670;51.464;11.964;2023-06-04T12:11:58;1.60;;;1.50;;
46931;SDS011;32670;51.464;11.964;2023-06-04T12:14:27;1.63;;;1.47;;
46931;SDS011;32670;51.464;11.964;2023-06-04T12:16:54;1.77;;;1.67;;
46931;SDS011;32670;51.464;11.964;2023-06-04T12:19:23;3.97;;;1.50;;
46931;SDS011;32670;51.464;11.964;2023-06-04T12:21:58;1.60;;;1.50;;
46931;SDS011;32670;51.464;11.964;2023-06-04T12:24:35;1.93;;;1.60;;
46931;SDS011;32670;51.464;11.964;2023-06-04T12:27:17;2.23;;;1.60;;
46931;SDS011;32670;51.464;11.964;2023-06-04T12:29:53;1.70;;;1.60;;
46931;SDS011;32670;51.464;11.964;2023-06-04T12:32:23;1.83;;;1.73;;
46931;SDS011;32670;51.464;11.964;2023-06-04T12:34:48;2.07;;;1.40;;
46931;SDS011;32670;51.464;11.964;2023-06-04T12:37:14;1.80;;;1.70;;
46931;SDS011;32670;51.464;11.964;2023-06-04T12:39:40;2.50;;;2.30;;
46931;SDS011;32670;51.464;11.964;2023-06-04T12:42:05;2.37;;;2.17;;
46931;SDS011;32670;51.464;11.964;2023-06-04T12:44:33;4.27;;;2.93;;
46931;SDS011;32670;51.464;11.964;2023-06-04T12:47:03;3.33;;;3.03;;
46931;SDS011;32670;51.464;11.964;2023-06-04T12:49:28;4.93;;;3.80;;
46931;SDS011;32670;51.464;11.964;2023-06-04T12:51:54;4.43;;;3.43;;
46931;SDS011;32670;51.464;11.964;2023-06-04T12:54:19;4.07;;;3.77;;
46931;SDS011;32670;51.464;11.964;2023-06-04T12:56:45;3.97;;;3.67;;
46931;SDS011;32670;51.464;11.964;2023-06-04T12:59:10;5.20;;;3.97;;
46931;SDS011;32670;51.464;11.964;2023-06-04T13:01:36;4.23;;;3.83;;
46931;SDS011;32670;51.464;11.964;2023-06-04T13:04:04;4.03;;;3.70;;
46931;SDS011;32670;51.464;11.964;2023-06-04T13:06:30;3.80;;;3.50;;
46931;SDS011;32670;51.464;11.964;2023-06-04T13:08:56;4.37;;;3.97;;
46931;SDS011;32670;51.464;11.964;2023-06-04T13:11:22;4.07;;;3.53;;
46931;SDS011;32670;51.464;11.964;2023-06-04T13:13:47;3.83;;;3.53;;
46931;SDS011;32670;51.464;11.964;2023-06-04T13:16:13;5.17;;;3.80;;
46931;SDS011;32670;51.464;11.964;2023-06-04T13:18:39;5.03;;;3.47;;
46931;SDS011;32670;51.464;11.964;2023-06-04T13:21:04;3.90;;;3.50;;
46931;SDS011;32670;51.464;11.964;2023-06-04T13:23:30;4.23;;;3.80;;
46931;SDS011;32670;51.464;11.964;2023-06-04T13:25:56;4.03;;;3.63;;
46931;SDS011;32670;51.464;11.964;2023-06-04T13:28:21;5.50;;;3.87;;
46931;SDS011;32670;51.464;11.964;2023-06-04T13:30:47;5.30;;;4.57;;
46931;SDS011;32670;51.464;11.964;2023-06-04T13:33:13;7.10;;;4.30;;
46931;SDS011;32670;51.464;11.964;2023-06-04T13:35:38;5.10;;;4.60;;
46931;SDS011;32670;51.464;11.964;2023-06-04T13:38:04;4.77;;;4.37;;
46931;SDS011;32670;51.464;11.964;2023-06-04T13:40:31;5.20;;;4.70;;
46931;SDS011;32670;51.464;11.964;2023-06-04T13:42:58;6.83;;;5.00;;
46931;SDS011;32670;51.464;11.964;2023-06-04T13:45:24;6.90;;;4.60;;
46931;SDS011;32670;51.464;11.964;2023-06-04T13:47:49;4.60;;;4.10;;
46931;SDS011;32670;51.464;11.964;2023-06-04T13:50:15;5.00;;;4.47;;
46931;SDS011;32670;51.464;11.964;2023-06-04T13:52:41;5.00;;;4.50;;
46931;SDS011;32670;51.464;11.964;2023-06-04T13:55:06;6.37;;;4.43;;
46931;SDS011;32670;51.464;11.964;2023-06-04T13:57:32;6.13;;;4.30;;
46931;SDS011;32670;51.464;11.964;2023-06-04T13:59:58;4.50;;;4.10;;
46931;SDS011;32670;51.464;11.964;2023-06-04T14:02:23;5.80;;;4.37;;
46931;SDS011;32670;51.464;11.964;2023-06-04T14:04:49;4.80;;;4.40;;
46931;SDS011;32670;51.464;11.964;2023-06-04T14:07:16;5.20;;;4.10;;
46931;SDS011;32670;51.464;11.964;2023-06-04T14:09:41;4.77;;;3.80;;
46931;SDS011;32670;51.464;11.964;2023-06-04T14:12:07;4.60;;;4.20;;
46931;SDS011;32670;51.464;11.964;2023-06-04T14:14:33;4.53;;;4.13;;
46931;SDS011;32670;51.464;11.964;2023-06-04T14:17:02;5.07;;;4.27;;
46931;SDS011;32670;51.464;11.964;2023-06-04T14:19:28;4.60;;;4.10;;
46931;SDS011;32670;51.464;11.964;2023-06-04T14:21:53;4.97;;;4.50;;
46931;SDS011;32670;51.464;11.964;2023-06-04T14:24:21;4.67;;;4.27;;
46931;SDS011;32670;51.464;11.964;2023-06-04T14:26:48;4.30;;;3.93;;
46931;SDS011;32670;51.464;11.964;2023-06-04T14:29:13;4.60;;;4.20;;
46931;SDS011;32670;51.464;11.964;2023-06-04T14:31:39;4.90;;;3.80;;
46931;SDS011;32670;51.464;11.964;2023-06-04T14:34:05;5.43;;;4.40;;